Superstar Express — 3FFX9 — position and weather

sailwx.info

Track history (hours):
 
Tides and Currents Weather Stations Pressure Air Temp Water Temp Dewpoint Dewpoint Depression Visibility Wind Speed Wind Dir Waves Ship Positions

Superstar Express

Operator: P & O Irish Sea

Last reported at 2017-May-22 23:59 UTC. Time now 2017-May-25 10:33 UTC.
Position N 34°33' E 134°47'.

Length 183 m; draft 6.7 m.

Type: Cargo ship. MMSI: 351360000.

Date/timePositionNaut miles runAvg speedWind from/ knotsBaromVisibWave heightAir tempDewpointWater temp
2017-May-22 23:59N 34°33' E 134°47'612.8
2017-May-22 23:28N 34°36' E 134°54'610.8
2017-May-22 22:54N 34°37' E 135°01'511.1
2017-May-22 22:30N 34°35' E 135°06'3 5.5
2017-May-22 22:00N 34°33' E 135°08'510.8
2017-May-22 21:30N 34°28' E 135°06'612.5
2017-May-22 21:00N 34°22' E 135°02'612.9
2017-May-22 20:30N 34°17' E 134°59'612.3
2017-May-22 20:00N 34°11' E 134°59'3 6.8
2017-May-22 19:30N 34°07' E 134°59'4 8.6
2017-May-22 19:00N 34°03' E 134°59'4 8.6
2017-May-22 18:30N 33°58' E 134°59'5 8.6
2017-May-22 17:56N 33°54' E 134°59'247 6.3
2017-May-21 02:58N 35°08' E 139°45'610.9
2017-May-21 02:26N 35°14' E 139°46'510.5
2017-May-21 02:01N 35°18' E 139°44'510.9
2017-May-21 01:31N 35°23' E 139°42'611.1
2017-May-21 01:01N 35°27' E 139°47'611.2
2017-May-21 00:31N 35°30' E 139°53'4 8.7
2017-May-21 00:01N 35°28' E 139°58'1 1.2
2017-May-20 23:10N 35°27' E 139°58'0 0.0
2017-May-20 22:58N 35°27' E 139°58'0 0.0
2017-May-20 22:28N 35°27' E 139°58'0 0.1
2017-May-20 21:58N 35°27' E 139°58'0 0.1
2017-May-20 21:22N 35°27' E 139°58'0 0.0
2017-May-20 20:58N 35°27' E 139°58'0 0.0
2017-May-20 20:16N 35°27' E 139°58'0 0.2
2017-May-20 19:58N 35°27' E 139°58'0 0.0
2017-May-20 19:22N 35°27' E 139°58'0 0.1
2017-May-20 18:40N 35°27' E 139°58'0 0.0
2017-May-20 18:16N 35°27' E 139°58'0 0.0
2017-May-20 17:58N 35°27' E 139°58'0 0.0
2017-May-20 16:04N 35°27' E 139°58'0 0.2
2017-May-20 15:46N 35°27' E 139°58'0 0.0
2017-May-20 14:34N 35°27' E 139°58'0 0.0
2017-May-20 14:28N 35°27' E 139°58'0 0.0
2017-May-20 12:16N 35°27' E 139°58'0 0.0
2017-May-20 11:10N 35°27' E 139°58'0 0.2
2017-May-20 10:58N 35°27' E 139°58'0 0.0
2017-May-20 10:28N 35°27' E 139°58'0 0.0
2017-May-20 09:58N 35°27' E 139°58'0 0.1
2017-May-20 09:22N 35°27' E 139°58'0 0.0
2017-May-20 07:40N 35°27' E 139°58'0 0.0
2017-May-20 07:28N 35°27' E 139°58'0 0.0
2017-May-20 02:04N 35°27' E 139°58'0 0.5
2017-May-20 01:58N 35°27' E 139°58'0 0.0
2017-May-19 08:46N 35°27' E 139°58'0 0.0
2017-May-19 07:40N 35°27' E 139°58'0 0.0
2017-May-19 07:22N 35°27' E 139°58'  
2017-May-16 21:58N 35°27' E 139°58'0 0.0
2017-May-15 02:12N 35°27' E 139°58'0 1.3
2017-May-15 02:00N 35°28' E 139°58'3 6.0
2017-May-15 01:30N 35°29' E 139°55'3 7.0
2017-May-15 01:00N 35°28' E 139°51'510.3
2017-May-15 00:30N 35°24' E 139°46'510.5
2017-May-15 00:00N 35°19' E 139°44'5 9.7
2017-May-14 23:30N 35°15' E 139°47'510.0
2017-May-14 23:00N 35°10' E 139°46'4 8.4
2017-May-14 22:30N 35°06' E 139°45'4 8.1
2017-May-14 22:00N 35°03' E 139°42'611.0
2017-May-14 21:30N 35°00' E 139°36'  
Track history (hours):
 
Tides and Currents Weather Stations Pressure Air Temp Water Temp Dewpoint Dewpoint Depression Visibility Wind Speed Wind Dir Waves Ship Positions

Superstar Express

Operator: P & O Irish Sea

Last reported at 2017-May-22 23:59 UTC. Time now 2017-May-25 10:33 UTC.
Position N 34°33' E 134°47'.

Length 183 m; draft 6.7 m.

Type: Cargo ship. MMSI: 351360000.

Date/timePositionNaut miles runAvg speedWind from/ knotsBaromVisibWave heightAir tempDewpointWater temp
2017-May-22 23:59N 34°33' E 134°47'612.8
2017-May-22 23:28N 34°36' E 134°54'610.8
2017-May-22 22:54N 34°37' E 135°01'511.1
2017-May-22 22:30N 34°35' E 135°06'3 5.5
2017-May-22 22:00N 34°33' E 135°08'510.8
2017-May-22 21:30N 34°28' E 135°06'612.5
2017-May-22 21:00N 34°22' E 135°02'612.9
2017-May-22 20:30N 34°17' E 134°59'612.3
2017-May-22 20:00N 34°11' E 134°59'3 6.8
2017-May-22 19:30N 34°07' E 134°59'4 8.6
2017-May-22 19:00N 34°03' E 134°59'4 8.6
2017-May-22 18:30N 33°58' E 134°59'5 8.6
2017-May-22 17:56N 33°54' E 134°59'247 6.3
2017-May-21 02:58N 35°08' E 139°45'610.9
2017-May-21 02:26N 35°14' E 139°46'510.5
2017-May-21 02:01N 35°18' E 139°44'510.9
2017-May-21 01:31N 35°23' E 139°42'611.1
2017-May-21 01:01N 35°27' E 139°47'611.2
2017-May-21 00:31N 35°30' E 139°53'4 8.7
2017-May-21 00:01N 35°28' E 139°58'1 1.2
2017-May-20 23:10N 35°27' E 139°58'0 0.0
2017-May-20 22:58N 35°27' E 139°58'0 0.0
2017-May-20 22:28N 35°27' E 139°58'0 0.1
2017-May-20 21:58N 35°27' E 139°58'0 0.1
2017-May-20 21:22N 35°27' E 139°58'0 0.0
2017-May-20 20:58N 35°27' E 139°58'0 0.0
2017-May-20 20:16N 35°27' E 139°58'0 0.2
2017-May-20 19:58N 35°27' E 139°58'0 0.0
2017-May-20 19:22N 35°27' E 139°58'0 0.1
2017-May-20 18:40N 35°27' E 139°58'0 0.0
2017-May-20 18:16N 35°27' E 139°58'0 0.0
2017-May-20 17:58N 35°27' E 139°58'0 0.0
2017-May-20 16:04N 35°27' E 139°58'0 0.2
2017-May-20 15:46N 35°27' E 139°58'0 0.0
2017-May-20 14:34N 35°27' E 139°58'0 0.0
2017-May-20 14:28N 35°27' E 139°58'0 0.0
2017-May-20 12:16N 35°27' E 139°58'0 0.0
2017-May-20 11:10N 35°27' E 139°58'0 0.2
2017-May-20 10:58N 35°27' E 139°58'0 0.0
2017-May-20 10:28N 35°27' E 139°58'0 0.0
2017-May-20 09:58N 35°27' E 139°58'0 0.1
2017-May-20 09:22N 35°27' E 139°58'0 0.0
2017-May-20 07:40N 35°27' E 139°58'0 0.0
2017-May-20 07:28N 35°27' E 139°58'0 0.0
2017-May-20 02:04N 35°27' E 139°58'0 0.5
2017-May-20 01:58N 35°27' E 139°58'0 0.0
2017-May-19 08:46N 35°27' E 139°58'0 0.0
2017-May-19 07:40N 35°27' E 139°58'0 0.0
2017-May-19 07:22N 35°27' E 139°58'  
2017-May-16 21:58N 35°27' E 139°58'0 0.0
2017-May-15 02:12N 35°27' E 139°58'0 1.3
2017-May-15 02:00N 35°28' E 139°58'3 6.0
2017-May-15 01:30N 35°29' E 139°55'3 7.0
2017-May-15 01:00N 35°28' E 139°51'510.3
2017-May-15 00:30N 35°24' E 139°46'510.5
2017-May-15 00:00N 35°19' E 139°44'5 9.7
2017-May-14 23:30N 35°15' E 139°47'510.0
2017-May-14 23:00N 35°10' E 139°46'4 8.4
2017-May-14 22:30N 35°06' E 139°45'4 8.1
2017-May-14 22:00N 35°03' E 139°42'611.0
2017-May-14 21:30N 35°00' E 139°36'  

Dump ship's entire track history